Time;durP1;ratioP1;P1;durP2;ratioP2;P2;SDS_P1;SDS_P2;PMS_P1;PMS_P2;Temp;Humidity;BMP_temperature;BMP_pressure;BME280_temperature;BME280_humidity;BME280_pressure;Samples;Min_cycle;Max_cycle;Signal;HPM_P1;HPM_P2
2022/10/20 00:01:55;;;;;;;31.70;16.13;;;4.30;99.90;;;;;;10402735;28;20038;-77
2022/10/20 00:06:56;;;;;;;35.30;17.37;;;4.30;99.90;;;;;;10397678;28;20057;-78
2022/10/20 00:11:57;;;;;;;38.47;17.20;;;4.30;99.90;;;;;;10403231;28;20033;-78
2022/10/20 00:17:00;;;;;;;36.73;16.47;;;4.20;99.90;;;;;;10395048;28;20037;-81
2022/10/20 00:22:00;;;;;;;39.67;18.80;;;4.10;99.90;;;;;;10405878;28;20120;-77
2022/10/20 00:27:01;;;;;;;43.70;17.93;;;4.00;99.90;;;;;;10410616;28;20029;-79
2022/10/20 00:32:01;;;;;;;38.70;17.83;;;3.90;99.90;;;;;;10395056;28;20112;-80
2022/10/20 00:37:02;;;;;;;46.17;19.73;;;3.80;99.90;;;;;;10409195;28;20045;-80
2022/10/20 00:42:03;;;;;;;36.63;17.37;;;3.80;99.90;;;;;;10409413;28;20041;-79
2022/10/20 00:47:04;;;;;;;40.10;18.60;;;3.90;99.90;;;;;;10400759;28;20513;-77
2022/10/20 00:52:05;;;;;;;37.30;17.60;;;3.90;99.90;;;;;;10403576;28;20037;-80
2022/10/20 00:57:06;;;;;;;33.73;16.93;;;3.80;99.90;;;;;;10401153;28;20454;-81
2022/10/20 01:02:08;;;;;;;36.97;17.70;;;3.70;99.90;;;;;;10407551;28;20036;-80
2022/10/20 01:07:08;;;;;;;35.93;17.07;;;3.60;99.90;;;;;;10408937;28;20045;-80
2022/10/20 01:12:16;;;;;;;45.40;20.80;;;3.60;99.90;;;;;;10408751;28;20045;-79
2022/10/20 01:17:39;;;;;;;41.63;17.73;;;3.60;99.90;;;;;;10405276;28;20037;-81
2022/10/20 01:23:25;;;;;;;37.63;18.50;;;3.60;99.90;;;;;;10395445;28;20640;-81
2022/10/20 01:28:38;;;;;;;40.77;17.87;;;3.50;99.90;;;;;;10408443;28;20021;-80
2022/10/20 01:33:55;;;;;;;42.33;20.23;;;3.50;99.90;;;;;;10395613;28;20045;-79
2022/10/20 01:39:05;;;;;;;40.13;18.33;;;3.40;99.90;;;;;;10405156;28;20026;-78
2022/10/20 01:44:10;;;;;;;54.07;22.57;;;3.40;99.90;;;;;;10407549;28;20154;-80
2022/10/20 01:49:13;;;;;;;61.40;25.97;;;3.40;99.90;;;;;;10404332;28;20112;-78
2022/10/20 01:54:25;;;;;;;49.83;23.07;;;3.40;99.90;;;;;;10397250;28;20040;-79
2022/10/20 01:59:46;;;;;;;53.20;24.53;;;3.50;99.90;;;;;;10400278;28;20025;-79
2022/10/20 02:05:13;;;;;;;48.43;21.60;;;3.60;99.90;;;;;;10403626;28;20095;-81
2022/10/20 02:10:40;;;;;;;50.67;21.63;;;3.50;99.90;;;;;;10406005;28;20032;-80
2022/10/20 02:15:45;;;;;;;53.33;21.87;;;3.40;99.90;;;;;;10404370;28;20096;-79
2022/10/20 02:20:49;;;;;;;36.35;18.30;;;3.30;99.90;;;;;;10395752;28;20033;-80
2022/10/20 02:25:52;;;;;;;63.30;23.67;;;3.20;99.90;;;;;;10406383;28;20033;-79
2022/10/20 02:30:54;;;;;;;62.63;24.97;;;3.10;99.90;;;;;;10400867;28;20033;-79
2022/10/20 02:35:56;;;;;;;54.57;23.00;;;3.00;99.90;;;;;;10401576;28;20041;-79
2022/10/20 02:40:57;;;;;;;57.33;24.27;;;3.00;99.90;;;;;;10401693;28;20548;-79
2022/10/20 02:45:57;;;;;;;73.83;29.17;;;2.90;99.90;;;;;;10405885;28;20048;-79
2022/10/20 02:50:58;;;;;;;64.63;27.83;;;3.00;99.90;;;;;;10389547;28;20354;-80
2022/10/20 02:55:58;;;;;;;69.07;27.70;;;2.90;99.90;;;;;;10405267;28;20524;-80
2022/10/20 03:00:59;;;;;;;70.13;25.77;;;2.90;99.90;;;;;;10405010;28;20027;-78
2022/10/20 03:06:11;;;;;;;52.03;23.57;;;2.90;99.90;;;;;;10393999;28;20059;-81
2022/10/20 03:11:11;;;;;;;51.43;22.03;;;2.90;99.90;;;;;;10405476;28;20535;-81
2022/10/20 03:16:12;;;;;;;61.73;23.93;;;2.90;99.90;;;;;;10399937;28;20037;-81
2022/10/20 03:21:13;;;;;;;60.97;26.50;;;2.80;99.90;;;;;;10392927;28;20486;-80
2022/10/20 03:26:13;;;;;;;65.57;26.83;;;2.80;99.90;;;;;;10400065;28;20033;-80
2022/10/20 03:31:14;;;;;;;56.00;24.47;;;2.90;99.90;;;;;;10390310;28;20042;-81
2022/10/20 03:36:14;;;;;;;65.07;27.23;;;2.90;99.90;;;;;;10398356;28;20053;-81
2022/10/20 03:41:15;;;;;;;61.03;27.20;;;3.00;99.90;;;;;;10400366;28;20037;-82
2022/10/20 03:46:15;;;;;;;41.90;19.73;;;3.10;99.90;;;;;;10393137;28;20042;-80
2022/10/20 03:51:16;;;;;;;35.70;17.40;;;3.00;99.90;;;;;;10400341;28;20113;-81
2022/10/20 03:56:18;;;;;;;36.53;19.27;;;2.90;99.90;;;;;;10399849;28;20547;-80
2022/10/20 04:01:23;;;;;;;57.83;23.17;;;2.60;99.90;;;;;;10412074;28;20057;-80
2022/10/20 04:06:24;;;;;;;83.63;35.33;;;2.40;99.90;;;;;;10404131;28;20069;-80
2022/10/20 04:11:25;;;;;;;68.63;30.57;;;2.20;99.90;;;;;;10409816;28;20112;-81
2022/10/20 04:16:26;;;;;;;60.23;26.73;;;2.10;99.90;;;;;;10389790;28;20077;-79
2022/10/20 04:21:26;;;;;;;125.70;30.27;;;2.00;99.90;;;;;;10392003;28;20120;-79
2022/10/20 04:26:27;;;;;;;93.67;24.83;;;2.00;99.90;;;;;;10410922;28;20034;-79
2022/10/20 04:31:27;;;;;;;123.13;23.93;;;1.90;99.90;;;;;;10410793;28;20098;-81
2022/10/20 04:36:28;;;;;;;118.30;27.10;;;1.90;99.90;;;;;;10410928;28;20488;-80
2022/10/20 04:41:28;;;;;;;57.00;18.10;;;1.80;99.90;;;;;;10411223;28;20041;-80
2022/10/20 04:46:29;;;;;;;46.57;17.13;;;1.70;99.90;;;;;;10410184;28;20478;-80
2022/10/20 04:51:30;;;;;;;33.17;14.73;;;1.70;99.90;;;;;;10410340;28;20037;-79
2022/10/20 04:56:30;;;;;;;47.07;19.17;;;1.60;99.90;;;;;;10410012;28;20049;-79
2022/10/20 05:01:31;;;;;;;131.87;27.70;;;1.60;99.90;;;;;;10409896;28;20550;-79
2022/10/20 05:06:32;;;;;;;82.20;22.57;;;1.60;99.90;;;;;;10409019;28;20057;-79
2022/10/20 05:11:35;;;;;;;67.80;19.87;;;1.50;99.90;;;;;;10408302;28;20017;-81
2022/10/20 05:16:36;;;;;;;56.97;16.93;;;1.60;99.90;;;;;;10409244;28;20045;-80
2022/10/20 05:21:36;;;;;;;56.30;22.03;;;1.60;99.90;;;;;;10408556;28;20469;-80
2022/10/20 05:26:37;;;;;;;101.57;22.03;;;1.70;99.90;;;;;;10408615;28;20032;-79
2022/10/20 05:31:41;;;;;;;104.40;25.17;;;1.80;99.90;;;;;;10408698;28;20034;-80
2022/10/20 05:36:41;;;;;;;63.27;25.67;;;1.80;99.90;;;;;;10408710;28;20047;-79
2022/10/20 05:41:42;;;;;;;59.17;22.70;;;1.80;99.90;;;;;;10408402;28;20376;-80
2022/10/20 05:46:42;;;;;;;110.53;25.17;;;1.90;99.90;;;;;;10408096;28;20468;-79
2022/10/20 05:51:45;;;;;;;68.40;25.47;;;1.80;99.90;;;;;;10407403;28;20026;-79
2022/10/20 05:56:45;;;;;;;684.97;234.30;;;1.90;99.90;;;;;;10407370;28;20034;-80
2022/10/20 06:01:46;;;;;;;161.37;39.37;;;2.00;99.90;;;;;;10407346;28;20515;-81
2022/10/20 06:06:47;;;;;;;67.27;17.97;;;2.10;99.90;;;;;;10407375;28;20073;-79
2022/10/20 06:11:50;;;;;;;59.97;15.17;;;2.00;99.90;;;;;;10406812;28;20018;-79
2022/10/20 06:16:52;;;;;;;342.53;97.17;;;2.00;99.90;;;;;;10406835;28;20044;-81
2022/10/20 06:21:53;;;;;;;571.37;182.93;;;2.10;99.90;;;;;;10406198;28;20030;-79
2022/10/20 06:26:53;;;;;;;401.90;106.27;;;2.30;99.90;;;;;;10406627;28;20021;-79
2022/10/20 06:31:55;;;;;;;215.43;61.93;;;2.40;99.90;;;;;;10406047;28;20412;-79
2022/10/20 06:36:56;;;;;;;210.70;61.10;;;2.50;99.90;;;;;;10405520;28;20045;-80
2022/10/20 06:41:57;;;;;;;201.03;57.50;;;2.60;99.90;;;;;;10398650;28;20025;-81
2022/10/20 06:46:57;;;;;;;175.17;49.50;;;2.70;99.90;;;;;;10405322;28;20013;-80
2022/10/20 06:51:58;;;;;;;365.93;92.07;;;2.70;99.90;;;;;;10405163;28;20099;-79
2022/10/20 06:56:58;;;;;;;433.67;107.03;;;2.80;99.90;;;;;;10405187;28;20032;-80
2022/10/20 07:02:00;;;;;;;112.53;32.40;;;2.90;99.90;;;;;;10405130;28;20065;-80
2022/10/20 07:07:01;;;;;;;104.03;25.33;;;3.00;99.90;;;;;;10404716;28;20111;-79
2022/10/20 07:12:05;;;;;;;113.17;25.37;;;3.00;99.90;;;;;;10404559;28;20108;-81
2022/10/20 07:17:07;;;;;;;108.00;26.60;;;3.10;99.90;;;;;;10405151;28;20077;-80
2022/10/20 07:22:07;;;;;;;100.03;25.03;;;3.20;99.90;;;;;;10404656;28;20057;-79
2022/10/20 07:27:08;;;;;;;109.57;31.03;;;3.40;99.90;;;;;;10404538;28;20088;-82
2022/10/20 07:32:08;;;;;;;90.60;28.30;;;3.50;99.90;;;;;;10394265;28;20316;-80
2022/10/20 07:37:09;;;;;;;141.17;41.23;;;3.80;99.90;;;;;;10412797;28;20033;-79
2022/10/20 07:42:09;;;;;;;72.07;28.07;;;4.00;99.90;;;;;;10412651;28;20029;-79
2022/10/20 07:47:10;;;;;;;80.17;28.77;;;4.20;99.90;;;;;;10412446;28;20079;-79
2022/10/20 07:52:11;;;;;;;51.37;24.20;;;4.50;99.90;;;;;;10413188;28;20045;-80
2022/10/20 07:57:11;;;;;;;57.03;25.37;;;4.80;99.90;;;;;;10411947;28;20145;-81
2022/10/20 08:02:14;;;;;;;63.90;28.00;;;5.30;99.90;;;;;;10412184;28;20481;-80
2022/10/20 08:07:15;;;;;;;41.80;20.33;;;5.80;99.90;;;;;;10411517;28;20527;-79
2022/10/20 08:12:16;;;;;;;35.70;19.30;;;6.20;99.90;;;;;;10411187;28;20409;-80
2022/10/20 08:17:17;;;;;;;36.67;16.23;;;6.80;99.90;;;;;;10410318;28;20041;-81
2022/10/20 08:22:18;;;;;;;25.33;12.47;;;7.20;99.90;;;;;;10412025;28;20474;-79
2022/10/20 08:27:19;;;;;;;27.67;15.97;;;7.60;99.90;;;;;;10410975;28;20021;-79
2022/10/20 08:32:19;;;;;;;20.53;11.03;;;8.00;99.90;;;;;;10411014;28;20037;-79
2022/10/20 08:37:20;;;;;;;22.10;10.07;;;8.40;99.90;;;;;;10410208;28;20563;-80
2022/10/20 08:42:21;;;;;;;20.50;9.03;;;8.60;99.90;;;;;;10410066;28;20040;-82
2022/10/20 08:47:33;;;;;;;16.53;8.43;;;8.80;99.90;;;;;;10410108;28;20025;-80
2022/10/20 08:52:34;;;;;;;12.20;7.10;;;9.10;99.90;;;;;;10411146;28;20104;-79
2022/10/20 08:57:35;;;;;;;13.15;6.28;;;9.30;99.90;;;;;;10409798;28;20033;-80
2022/10/20 09:02:36;;;;;;;9.75;5.13;;;9.40;99.90;;;;;;10409811;28;20021;-81
2022/10/20 09:07:38;;;;;;;8.90;4.85;;;9.70;99.90;;;;;;10409130;28;20135;-79
2022/10/20 09:12:41;;;;;;;7.22;4.32;;;9.90;99.90;;;;;;10409430;28;20045;-82
2022/10/20 09:17:47;;;;;;;4.70;3.08;;;10.00;99.90;;;;;;10409098;28;20440;-79
2022/10/20 09:22:47;;;;;;;5.68;2.95;;;10.20;99.90;;;;;;10408789;28;20021;-81
2022/10/20 09:27:49;;;;;;;6.65;3.33;;;10.30;99.90;;;;;;10408649;28;20026;-79
2022/10/20 09:32:51;;;;;;;5.78;3.25;;;10.50;99.90;;;;;;10408772;28;20076;-78
2022/10/20 09:38:01;;;;;;;4.47;2.97;;;10.70;99.90;;;;;;10408401;28;20032;-77
2022/10/20 09:43:09;;;;;;;6.95;2.63;;;10.70;99.90;;;;;;10408255;28;20018;-77
2022/10/20 09:48:30;;;;;;;4.07;2.28;;;10.70;99.90;;;;;;10407667;28;20144;-78
2022/10/20 09:53:34;;;;;;;5.90;2.33;;;11.00;99.90;;;;;;10406835;28;20057;-77
2022/10/20 09:58:37;;;;;;;6.07;3.03;;;11.10;99.90;;;;;;10407142;28;20045;-77
2022/10/20 10:03:42;;;;;;;8.65;3.15;;;11.00;99.90;;;;;;10405547;28;20087;-77
2022/10/20 10:08:46;;;;;;;9.10;3.85;;;11.30;99.90;;;;;;10392623;28;20556;-78
2022/10/20 10:13:51;;;;;;;8.70;3.55;;;11.40;99.90;;;;;;10406852;28;20045;-77
2022/10/20 10:19:03;;;;;;;15.98;5.25;;;11.50;99.90;;;;;;10406781;28;20572;-76
2022/10/20 10:24:04;;;;;;;4.43;3.10;;;11.70;99.90;;;;;;10406599;28;20030;-77
2022/10/20 10:29:14;;;;;;;8.20;3.90;;;11.80;99.90;;;;;;10406804;28;20095;-78
2022/10/20 10:34:14;;;;;;;9.85;3.70;;;11.60;99.90;;;;;;10405711;28;20049;-77
2022/10/20 10:39:15;;;;;;;11.93;4.18;;;11.80;99.90;;;;;;10391975;28;20115;-78
2022/10/20 10:44:43;;;;;;;9.02;4.22;;;11.90;99.90;;;;;;10405418;28;20361;-77
2022/10/20 10:49:53;;;;;;;8.98;3.70;;;12.10;99.90;;;;;;10406667;28;20035;-77
2022/10/20 10:55:19;;;;;;;7.93;3.88;;;12.20;99.90;;;;;;10405496;28;20045;-77
2022/10/20 11:00:58;;;;;;;8.77;3.78;;;12.00;99.90;;;;;;10404681;28;20130;-77
2022/10/20 11:06:01;;;;;;;10.00;4.10;;;12.20;99.90;;;;;;10405314;28;20116;-77
2022/10/20 11:11:26;;;;;;;9.23;3.97;;;12.50;99.90;;;;;;10405029;28;20071;-76
2022/10/20 11:16:45;;;;;;;11.93;4.95;;;12.70;99.90;;;;;;10405199;28;20405;-78
2022/10/20 11:22:12;;;;;;;12.50;3.67;;;12.70;99.90;;;;;;10404754;28;20102;-76
2022/10/20 11:27:21;;;;;;;7.85;3.75;;;12.80;99.90;;;;;;10405261;28;20052;-77
2022/10/20 11:32:56;;;;;;;10.73;4.93;;;12.90;99.90;;;;;;10404861;28;20123;-77
2022/10/20 11:37:59;;;;;;;8.18;3.13;;;12.90;99.90;;;;;;10392596;28;20122;-77
2022/10/20 11:43:13;;;;;;;9.95;3.60;;;13.20;99.90;;;;;;10404031;28;20119;-77
2022/10/20 11:48:24;;;;;;;7.13;3.38;;;13.20;99.90;;;;;;10404474;28;20485;-77
2022/10/20 11:53:55;;;;;;;8.25;4.03;;;13.00;99.90;;;;;;10404831;28;20037;-76
2022/10/20 11:59:19;;;;;;;7.65;3.75;;;13.30;99.90;;;;;;10404646;28;20078;-78
2022/10/20 12:04:57;;;;;;;7.50;3.20;;;13.30;99.90;;;;;;10403942;28;20418;-77
2022/10/20 12:10:35;;;;;;;9.48;4.00;;;13.50;99.90;;;;;;10404452;28;20199;-76
2022/10/20 12:15:48;;;;;;;4.47;2.33;;;13.60;99.90;;;;;;10400599;28;20038;-76
2022/10/20 12:21:04;;;;;;;4.15;2.40;;;13.70;99.90;;;;;;10398352;28;20477;-75
2022/10/20 12:26:33;;;;;;;7.97;4.30;;;13.70;99.90;;;;;;10408283;28;20018;-77
2022/10/20 12:32:11;;;;;;;11.57;8.30;;;13.70;99.90;;;;;;10409918;28;20018;-78
2022/10/20 12:37:24;;;;;;;9.90;4.00;;;13.70;99.90;;;;;;10397447;28;20042;-76
2022/10/20 12:42:25;;;;;;;6.75;2.53;;;13.80;99.90;;;;;;10408933;28;20025;-78
2022/10/20 12:47:31;;;;;;;5.32;2.35;;;13.80;99.90;;;;;;10404361;28;20044;-76
2022/10/20 12:52:34;;;;;;;5.63;2.03;;;13.80;99.90;;;;;;10409977;28;20036;-75
2022/10/20 12:57:42;;;;;;;6.35;2.35;;;13.80;99.90;;;;;;10405076;28;20044;-77
2022/10/20 13:03:24;;;;;;;16.50;6.93;;;13.90;99.90;;;;;;10409678;28;20021;-76
2022/10/20 13:08:30;;;;;;;12.55;6.30;;;14.00;99.90;;;;;;10409708;28;20045;-77
2022/10/20 13:13:31;;;;;;;17.23;11.27;;;13.80;93.10;;;;;;10408491;28;20064;-76
2022/10/20 13:18:37;;;;;;;14.75;8.13;;;13.70;99.90;;;;;;10402658;28;20668;-76
2022/10/20 13:23:42;;;;;;;11.55;6.60;;;13.80;99.90;;;;;;10408616;28;20021;-78
2022/10/20 13:28:47;;;;;;;14.10;5.97;;;13.70;99.90;;;;;;10403052;28;20420;-76
2022/10/20 13:34:03;;;;;;;6.93;3.20;;;13.50;95.40;;;;;;10407461;28;20052;-77
2022/10/20 13:39:18;;;;;;;21.83;11.60;;;13.50;99.90;;;;;;10407764;28;20060;-77
2022/10/20 13:44:31;;;;;;;6.63;2.25;;;13.60;99.90;;;;;;10406256;28;20029;-76
2022/10/20 13:49:52;;;;;;;36.90;22.23;;;13.50;99.40;;;;;;10395424;28;20107;-76
2022/10/20 13:54:53;;;;;;;25.92;13.63;;;13.50;99.90;;;;;;10402587;28;20042;-76
2022/10/20 13:59:59;;;;;;;46.13;26.35;;;13.10;99.20;;;;;;10400279;28;20033;-76
2022/10/20 14:05:14;;;;;;;8.30;3.70;;;13.00;99.90;;;;;;10402604;28;20050;-77
2022/10/20 14:10:52;;;;;;;11.45;5.85;;;13.10;99.90;;;;;;10402540;28;20032;-77
2022/10/20 14:15:56;;;;;;;55.22;32.45;;;12.90;95.40;;;;;;10352080;28;20053;-77
2022/10/20 14:21:00;;;;;;;7.18;3.90;;;12.80;98.90;;;;;;10405378;28;20021;-77
2022/10/20 14:26:02;;;;;;;9.27;3.80;;;12.70;99.90;;;;;;10406543;28;20059;-78
2022/10/20 14:31:04;;;;;;;23.95;12.68;;;12.60;99.90;;;;;;10390986;28;20041;-77
2022/10/20 14:36:05;;;;;;;53.60;34.10;;;12.50;99.90;;;;;;10405208;28;20046;-76
2022/10/20 14:41:07;;;;;;;64.25;38.42;;;12.30;99.90;;;;;;10405082;28;20037;-77
2022/10/20 14:46:21;;;;;;;51.95;20.85;;;12.30;99.90;;;;;;10402793;28;20029;-77
2022/10/20 14:51:53;;;;;;;110.53;65.95;;;12.00;98.20;;;;;;10395866;28;20444;-76
2022/10/20 14:57:00;;;;;;;306.10;191.52;;;11.60;93.20;;;;;;10400663;28;20053;-76
2022/10/20 15:02:20;;;;;;;117.63;62.60;;;11.40;97.00;;;;;;10405816;28;20041;-78
2022/10/20 15:07:20;;;;;;;104.13;59.20;;;11.30;98.70;;;;;;10398575;28;20057;-78
2022/10/20 15:12:24;;;;;;;67.38;42.45;;;11.10;99.30;;;;;;10396955;28;20359;-77
2022/10/20 15:17:38;;;;;;;41.15;23.50;;;10.90;99.80;;;;;;10400996;28;20048;-77
2022/10/20 15:22:39;;;;;;;45.40;28.17;;;10.60;98.10;;;;;;10398120;28;20032;-78
2022/10/20 15:27:39;;;;;;;35.22;17.27;;;10.30;98.70;;;;;;10392093;28;20022;-77
2022/10/20 15:32:40;;;;;;;54.95;35.15;;;10.00;99.30;;;;;;10395761;28;20046;-77
2022/10/20 15:37:41;;;;;;;40.72;25.45;;;9.80;99.50;;;;;;10393401;28;20049;-77
2022/10/20 15:42:41;;;;;;;51.60;28.50;;;9.50;99.90;;;;;;10394982;28;20104;-77
2022/10/20 15:47:43;;;;;;;37.13;19.63;;;9.10;99.90;;;;;;10389979;28;20044;-80
2022/10/20 15:52:43;;;;;;;36.77;19.93;;;8.90;99.90;;;;;;10390328;28;20045;-77
2022/10/20 15:57:44;;;;;;;31.67;18.90;;;8.60;99.90;;;;;;10411217;28;20041;-78
2022/10/20 16:02:45;;;;;;;30.37;15.57;;;8.40;99.90;;;;;;10412402;28;20037;-81
2022/10/20 16:07:46;;;;;;;23.13;11.10;;;8.20;99.90;;;;;;10401600;28;20054;-77
2022/10/20 16:12:47;;;;;;;24.90;10.73;;;8.10;99.90;;;;;;10402215;28;20468;-77
2022/10/20 16:17:48;;;;;;;24.53;8.43;;;7.90;99.90;;;;;;10408518;28;20124;-77
2022/10/20 16:22:48;;;;;;;21.80;8.50;;;7.70;99.90;;;;;;10409477;28;20485;-77
2022/10/20 16:27:49;;;;;;;18.90;7.40;;;7.70;99.90;;;;;;10401699;28;20568;-77
2022/10/20 16:32:49;;;;;;;19.07;8.10;;;7.60;99.90;;;;;;10409948;28;20045;-77
2022/10/20 16:37:50;;;;;;;22.43;8.90;;;7.50;99.90;;;;;;10388474;28;20052;-77
2022/10/20 16:42:51;;;;;;;19.33;7.67;;;7.50;99.90;;;;;;10399521;28;20044;-78
2022/10/20 16:47:51;;;;;;;17.93;7.83;;;7.40;99.90;;;;;;10395805;28;20105;-77
2022/10/20 16:52:52;;;;;;;19.97;7.57;;;7.30;99.90;;;;;;10397149;28;20033;-78
2022/10/20 16:57:54;;;;;;;14.40;6.60;;;7.20;99.90;;;;;;10400592;28;20030;-78
2022/10/20 17:02:56;;;;;;;16.43;8.27;;;7.10;99.90;;;;;;10390879;28;20083;-78
2022/10/20 17:07:57;;;;;;;16.20;7.10;;;7.00;99.90;;;;;;10391078;28;20136;-78
2022/10/20 17:12:57;;;;;;;14.43;6.80;;;7.00;99.90;;;;;;10394679;28;20111;-78
2022/10/20 17:17:58;;;;;;;16.87;7.80;;;6.90;99.90;;;;;;10401478;28;20044;-78
2022/10/20 17:22:58;;;;;;;14.13;7.03;;;6.70;99.90;;;;;;10400382;28;20556;-79
2022/10/20 17:28:00;;;;;;;18.03;7.73;;;6.70;99.90;;;;;;10401400;28;20098;-80
2022/10/20 17:33:00;;;;;;;18.83;8.73;;;6.50;99.90;;;;;;10400135;28;20048;-79
2022/10/20 17:38:01;;;;;;;17.67;8.07;;;6.30;99.90;;;;;;10401202;28;20037;-78
2022/10/20 17:43:02;;;;;;;18.90;7.53;;;6.20;99.90;;;;;;10404799;28;20029;-81
2022/10/20 17:48:04;;;;;;;19.23;8.93;;;6.00;99.90;;;;;;10392485;28;20025;-81
2022/10/20 17:53:08;;;;;;;19.63;9.63;;;5.80;99.90;;;;;;10405600;28;20078;-80
2022/10/20 17:58:09;;;;;;;43.37;19.17;;;5.60;99.90;;;;;;10401500;28;20389;-78
2022/10/20 18:03:09;;;;;;;73.70;29.57;;;5.50;99.90;;;;;;10394297;28;20033;-78
2022/10/20 18:08:10;;;;;;;114.07;42.20;;;5.60;99.90;;;;;;10400424;28;20800;-77
2022/10/20 18:13:11;;;;;;;96.87;40.27;;;5.60;99.90;;;;;;10405900;28;20072;-78
2022/10/20 18:18:11;;;;;;;98.27;39.73;;;5.60;99.90;;;;;;10390966;28;20036;-78
2022/10/20 18:23:12;;;;;;;84.37;34.10;;;5.60;99.90;;;;;;10406379;28;20119;-80
2022/10/20 18:28:15;;;;;;;65.37;29.10;;;5.60;99.90;;;;;;10400472;28;20024;-78
2022/10/20 18:33:15;;;;;;;54.53;25.77;;;5.70;99.90;;;;;;10405332;28;20040;-79
2022/10/20 18:38:16;;;;;;;57.43;26.73;;;5.70;99.90;;;;;;10401887;28;20051;-81
2022/10/20 18:43:16;;;;;;;55.13;24.13;;;5.60;99.90;;;;;;10377846;28;20552;-81
2022/10/20 18:48:17;;;;;;;55.77;23.80;;;5.50;99.90;;;;;;10401004;28;20059;-77
2022/10/20 18:53:18;;;;;;;42.07;21.93;;;5.50;99.90;;;;;;10399646;28;20037;-78
2022/10/20 18:58:18;;;;;;;39.13;18.43;;;5.40;99.90;;;;;;10377637;28;20245;-78
2022/10/20 19:03:19;;;;;;;43.37;20.10;;;5.40;99.90;;;;;;10390504;28;20543;-81
2022/10/20 19:08:19;;;;;;;43.37;19.57;;;5.30;99.90;;;;;;10400386;28;20052;-78
2022/10/20 19:13:20;;;;;;;39.60;17.37;;;5.10;99.90;;;;;;10397812;28;20068;-78
2022/10/20 19:18:22;;;;;;;39.13;17.63;;;5.00;99.90;;;;;;10401826;28;20031;-77
2022/10/20 19:23:23;;;;;;;35.30;17.67;;;4.80;99.90;;;;;;10393792;28;20389;-78
2022/10/20 19:28:23;;;;;;;34.73;17.07;;;4.70;99.90;;;;;;10392656;28;20036;-77
2022/10/20 19:33:24;;;;;;;31.27;14.97;;;4.50;99.90;;;;;;10401012;28;20037;-80
2022/10/20 19:38:25;;;;;;;30.03;13.37;;;4.50;99.90;;;;;;10410742;28;20441;-77
2022/10/20 19:43:25;;;;;;;31.53;13.83;;;4.50;99.90;;;;;;10404512;28;20087;-80
2022/10/20 19:48:26;;;;;;;35.13;15.70;;;4.50;99.90;;;;;;10411734;28;20425;-78
2022/10/20 19:53:27;;;;;;;33.77;14.97;;;4.40;99.90;;;;;;10412351;28;20096;-77
2022/10/20 19:58:28;;;;;;;32.10;15.33;;;4.40;99.90;;;;;;10399258;28;20059;-78
2022/10/20 20:03:28;;;;;;;27.67;14.53;;;4.30;99.90;;;;;;10411701;28;20529;-78
2022/10/20 20:08:29;;;;;;;31.70;15.90;;;4.10;99.90;;;;;;10411129;28;20060;-78
2022/10/20 20:13:31;;;;;;;32.93;15.73;;;4.00;99.90;;;;;;10411462;28;20120;-80
2022/10/20 20:18:33;;;;;;;33.83;15.60;;;3.90;99.90;;;;;;10410020;28;20099;-77
2022/10/20 20:23:33;;;;;;;32.93;15.63;;;3.90;99.90;;;;;;10411686;28;20037;-78
2022/10/20 20:28:34;;;;;;;32.03;15.33;;;3.80;99.90;;;;;;10411634;28;20037;-77
2022/10/20 20:33:35;;;;;;;35.63;16.80;;;3.80;99.90;;;;;;10403052;28;20111;-77
2022/10/20 20:38:37;;;;;;;36.50;16.47;;;3.70;99.90;;;;;;10407812;28;20037;-80
2022/10/20 20:43:39;;;;;;;36.23;17.60;;;3.70;99.90;;;;;;10409763;28;20038;-78
2022/10/20 20:48:40;;;;;;;39.73;18.53;;;3.70;99.90;;;;;;10400209;28;20057;-77
2022/10/20 20:53:41;;;;;;;36.67;16.57;;;3.60;99.90;;;;;;10399779;28;20041;-79
2022/10/20 20:58:47;;;;;;;39.20;17.47;;;3.60;99.90;;;;;;10394327;28;20448;-77
2022/10/20 21:03:52;;;;;;;39.23;18.10;;;3.60;99.90;;;;;;10405691;28;20026;-79
2022/10/20 21:08:54;;;;;;;37.07;16.87;;;3.60;99.90;;;;;;10401806;28;20108;-77
2022/10/20 21:13:57;;;;;;;41.93;19.67;;;3.50;99.90;;;;;;10408543;28;20261;-79
2022/10/20 21:19:03;;;;;;;49.27;20.27;;;3.50;99.90;;;;;;10403708;28;20562;-80
2022/10/20 21:24:05;;;;;;;47.08;21.95;;;3.50;99.90;;;;;;10409225;28;20048;-79
2022/10/20 21:29:05;;;;;;;41.67;20.30;;;3.40;99.90;;;;;;10407610;28;20121;-78
2022/10/20 21:34:06;;;;;;;50.00;21.20;;;3.30;99.90;;;;;;10405220;28;20503;-79
2022/10/20 21:39:11;;;;;;;41.13;19.40;;;3.30;99.90;;;;;;10409653;28;20033;-77
2022/10/20 21:44:13;;;;;;;37.90;18.33;;;3.30;99.90;;;;;;10404850;28;20422;-77
2022/10/20 21:49:17;;;;;;;41.13;18.33;;;3.10;99.90;;;;;;10404821;28;20037;-78
2022/10/20 21:54:20;;;;;;;40.13;17.53;;;3.10;99.90;;;;;;10407155;28;20041;-77
2022/10/20 21:59:26;;;;;;;32.00;16.17;;;3.10;99.90;;;;;;10407154;28;20493;-77
2022/10/20 22:04:28;;;;;;;35.20;17.90;;;3.10;99.90;;;;;;10386634;28;20042;-76
2022/10/20 22:09:28;;;;;;;35.73;16.23;;;3.00;99.90;;;;;;10402397;28;20457;-78
2022/10/20 22:14:29;;;;;;;36.73;16.17;;;3.00;99.90;;;;;;10404353;28;20049;-78
2022/10/20 22:19:30;;;;;;;34.33;15.70;;;3.00;99.90;;;;;;10403694;28;20037;-77
2022/10/20 22:24:31;;;;;;;33.33;14.83;;;3.10;99.90;;;;;;10406644;28;20044;-78
2022/10/20 22:29:32;;;;;;;37.27;16.73;;;3.10;99.90;;;;;;10405717;28;20365;-78
2022/10/20 22:34:32;;;;;;;37.40;17.00;;;3.00;99.90;;;;;;10401112;28;20045;-78
2022/10/20 22:39:33;;;;;;;45.83;19.73;;;3.10;99.90;;;;;;10405435;28;20041;-79
2022/10/20 22:44:33;;;;;;;36.97;17.17;;;3.00;99.90;;;;;;10406167;28;20031;-77
2022/10/20 22:49:34;;;;;;;43.40;19.40;;;3.00;99.90;;;;;;10395541;28;20583;-80
2022/10/20 22:54:34;;;;;;;53.23;22.87;;;2.90;99.90;;;;;;10406503;28;20082;-80
2022/10/20 22:59:35;;;;;;;50.80;22.17;;;2.80;99.90;;;;;;10403766;28;20592;-81
2022/10/20 23:04:35;;;;;;;40.37;18.20;;;2.80;99.90;;;;;;10402519;28;20045;-78
2022/10/20 23:09:36;;;;;;;33.03;15.90;;;2.80;99.90;;;;;;10400538;28;20079;-80
2022/10/20 23:14:36;;;;;;;39.17;18.13;;;2.80;99.90;;;;;;10398814;28;20034;-77
2022/10/20 23:19:37;;;;;;;45.60;19.53;;;2.70;99.90;;;;;;10399107;28;20030;-77
2022/10/20 23:24:38;;;;;;;42.23;19.33;;;2.70;99.90;;;;;;10400785;28;20091;-80
2022/10/20 23:29:38;;;;;;;42.70;18.13;;;2.60;99.90;;;;;;10396348;28;20033;-78
2022/10/20 23:34:39;;;;;;;41.87;18.50;;;2.50;99.90;;;;;;10403317;28;20041;-77
2022/10/20 23:39:39;;;;;;;34.60;16.13;;;2.50;99.90;;;;;;10403074;28;20508;-80
2022/10/20 23:44:41;;;;;;;34.40;17.00;;;2.60;99.90;;;;;;10399667;28;20040;-78
2022/10/20 23:49:42;;;;;;;39.40;18.20;;;2.60;99.90;;;;;;10396074;28;20022;-77
2022/10/20 23:54:42;;;;;;;40.77;17.73;;;2.60;99.90;;;;;;10395058;28;20092;-78
2022/10/20 23:59:43;;;;;;;35.50;17.53;;;2.60;99.90;;;;;;10399934;28;20104;-77
